KBLI/BLI METAR and TAF weather

Enter ICAO airport designator
Station Type Date Time Source
KBLI METAR 2018/07/21 10:53 UTC NOAA

KBLI 211053Z AUTO 13003KT 10SM CLR 12/09 A3011 RMK AO2 SLP202 T01170089


Station Type Date Time Source
KBLI Decoded METAR 2018/07/21 10:53 UTC NOAA

BELLINGHAM INTERNATIONAL AIRPORT, WA, United States (KBLI) 48-48N 122-32W 50M
Jul 21, 2018 - 06:53 AM EDT / 2018.07.21 1053 UTC
Wind: from the SE (130 degrees) at 3 MPH (3 KT):0
Visibility: 10 mile(s):0
Sky conditions: clear
Temperature: 53.1 F (11.7 C)
Dew Point: 48.0 F (8.9 C)
Relative Humidity: 82%
Pressure (altimeter): 30.11 in. Hg (1019 hPa)
ob: KBLI 211053Z AUTO 13003KT 10SM CLR 12/09 A3011 RMK AO2 SLP202 T01170089
cycle: 11

Station Type Date Time Source
KBLI TAF 2018/07/21 12:33 UTC NOAA

TAF KBLI 211130Z 2112/2212 VRB03KT P6SM SKC
FM212300 29006KT P6SM SKC
FM220300 VRB03KT P6SM SKC


Example: see airport list